createdAt,value
2016-02-22T00:00:19.379Z,0
2016-02-22T00:01:54.382Z,0
2016-02-22T00:02:35.213Z,0
2016-02-22T00:04:26.781Z,0
2016-02-22T00:04:42.406Z,0
2016-02-22T00:06:36.351Z,0
2016-02-22T00:06:48.976Z,0
2016-02-22T00:08:45.919Z,0
2016-02-22T00:08:58.497Z,0
2016-02-22T00:10:55.487Z,0
2016-02-22T00:11:08.068Z,0
2016-02-22T00:13:10.683Z,0
2016-02-22T00:13:42.464Z,0
2016-02-22T00:14:23.248Z,0
2016-02-22T00:15:49.016Z,0
2016-02-22T00:16:58.571Z,0
2016-02-22T00:17:42.449Z,0
2016-02-22T00:19:33.782Z,0
2016-02-22T00:19:49.376Z,0
2016-02-22T00:21:43.349Z,0
2016-02-22T00:21:55.912Z,0
2016-02-22T00:23:47.277Z,0
2016-02-22T00:24:03.546Z,0
2016-02-22T00:26:03.098Z,0
2016-02-22T00:26:34.895Z,0
2016-02-22T00:27:15.694Z,0
2016-02-22T00:29:18.324Z,0
2016-02-22T00:29:56.637Z,0
2016-02-22T00:30:30.921Z,0
2016-02-22T00:32:33.551Z,0
2016-02-22T00:33:11.789Z,0
2016-02-22T00:33:46.164Z,0
2016-02-22T00:35:17.465Z,0
2016-02-22T00:35:55.715Z,0
2016-02-22T00:37:52.720Z,0
2016-02-22T00:38:05.270Z,0
2016-02-22T00:40:02.383Z,0
2016-02-22T00:40:14.964Z,0
2016-02-22T00:42:11.969Z,0
2016-02-22T00:42:24.422Z,0
2016-02-22T00:44:27.803Z,0
2016-02-22T00:44:40.365Z,0
2016-02-22T00:45:40.383Z,0
2016-02-22T00:46:40.635Z,0
2016-02-22T00:47:53.202Z,0
2016-02-22T00:48:53.204Z,0
2016-02-22T00:49:59.675Z,0
2016-02-22T00:51:31.838Z,0
2016-02-22T00:53:07.060Z,0
2016-02-22T00:53:50.982Z,0
2016-02-22T00:55:13.301Z,0
2016-02-22T00:56:00.613Z,0
2016-02-22T00:56:29.319Z,0
2016-02-22T00:57:54.790Z,0
2016-02-22T00:58:41.762Z,0
2016-02-22T00:59:57.920Z,0
2016-02-22T01:00:51.502Z,0
2016-02-22T01:02:05.866Z,0
2016-02-22T01:04:50.935Z,0
2016-02-22T01:05:19.687Z,0
2016-02-22T01:06:50.970Z,0
2016-02-22T01:07:32.412Z,0
2016-02-22T01:08:19.726Z,0
2016-02-22T01:10:16.700Z,0
2016-02-22T01:10:48.450Z,0
2016-02-22T01:12:52.518Z,0
2016-02-22T01:13:36.396Z,0
2016-02-22T01:14:05.117Z,0
2016-02-22T01:16:05.138Z,0
2016-02-22T01:17:05.782Z,0
2016-02-22T01:18:15.066Z,0
2016-02-22T01:19:17.958Z,0
2016-02-22T01:20:17.977Z,0
2016-02-22T01:22:02.230Z,0
2016-02-22T01:22:34.045Z,0
2016-02-22T01:23:14.891Z,0
2016-02-22T01:24:40.566Z,0
2016-02-22T01:25:22.568Z,0
2016-02-22T01:27:17.527Z,0
2016-02-22T01:27:30.121Z,0
2016-02-22T01:28:30.343Z,0
2016-02-22T01:29:30.735Z,0
2016-02-22T01:30:30.942Z,0
2016-02-22T01:31:42.929Z,0
2016-02-22T01:32:30.197Z,0
2016-02-22T01:34:42.812Z,0
2016-02-22T01:35:59.017Z,0
2016-02-22T01:36:39.879Z,0
2016-02-22T01:38:42.448Z,0
2016-02-22T01:38:55.010Z,0
2016-02-22T01:39:55.059Z,0
2016-02-22T01:41:07.800Z,0
2016-02-22T01:41:56.503Z,0
2016-02-22T01:43:07.820Z,0
2016-02-22T01:43:55.914Z,0
2016-02-22T01:46:04.860Z,0
2016-02-22T01:47:17.425Z,0
2016-02-22T01:48:17.459Z,0
2016-02-22T01:49:23.758Z,0
2016-02-22T01:50:17.480Z,0
2016-02-22T01:52:20.126Z,0
2016-02-22T01:52:32.688Z,0
2016-02-22T01:53:32.722Z,0
2016-02-22T01:54:38.991Z,0
2016-02-22T01:55:32.759Z,0
2016-02-22T01:56:52.027Z,0
2016-02-22T01:57:32.999Z,0
2016-02-22T01:58:32.813Z,0
2016-02-22T01:59:39.098Z,0
2016-02-22T02:00:45.616Z,0
2016-02-22T02:01:34.290Z,0
2016-02-22T02:03:45.515Z,0
2016-02-22T02:05:04.707Z,0
2016-02-22T02:06:14.101Z,0
2016-02-22T02:06:48.601Z,0
2016-02-22T02:09:01.372Z,0
2016-02-22T02:09:48.875Z,0
2016-02-22T02:11:14.411Z,0
2016-02-22T02:11:48.692Z,0
2016-02-22T02:12:48.711Z,0
2016-02-22T02:13:48.745Z,0
2016-02-22T02:14:48.778Z,0
2016-02-22T02:15:55.141Z,0
2016-02-22T02:17:01.627Z,0
2016-02-22T02:18:01.536Z,0
2016-02-22T02:18:48.836Z,0
2016-02-22T02:19:48.854Z,0
2016-02-22T02:21:08.063Z,0
2016-02-22T02:21:50.329Z,0
2016-02-22T02:23:14.584Z,0
2016-02-22T02:23:51.990Z,0
2016-02-22T02:24:48.963Z,0
2016-02-22T02:26:01.715Z,0
2016-02-22T02:26:48.999Z,0
2016-02-22T02:28:08.223Z,0
2016-02-22T02:28:50.473Z,0
2016-02-22T02:30:46.010Z,0
2016-02-22T02:30:58.619Z,0
2016-02-22T02:31:58.574Z,0
2016-02-22T02:33:11.362Z,0
2016-02-22T02:34:11.410Z,0
2016-02-22T02:36:01.913Z,0
2016-02-22T02:37:14.668Z,0
2016-02-22T02:38:01.934Z,0
2016-02-22T02:39:08.221Z,0
2016-02-22T02:40:02.003Z,0
2016-02-22T02:41:14.742Z,0
2016-02-22T02:42:08.292Z,0
2016-02-22T02:43:21.231Z,0
2016-02-22T02:44:21.266Z,0
2016-02-22T02:45:27.971Z,0
2016-02-22T02:46:27.771Z,0
2016-02-22T02:47:33.430Z,0
2016-02-22T02:49:02.213Z,0
2016-02-22T02:50:02.169Z,0
2016-02-22T02:51:02.188Z,0
2016-02-22T02:52:09.068Z,0
2016-02-22T02:53:03.724Z,0
2016-02-22T02:54:14.979Z,0
2016-02-22T02:55:05.310Z,0
2016-02-22T02:56:21.516Z,0
2016-02-22T02:57:21.551Z,0
2016-02-22T02:58:33.615Z,0
2016-02-22T02:59:33.665Z,0
2016-02-22T03:00:11.918Z,0
2016-02-22T03:01:31.092Z,0
2016-02-22T03:03:11.942Z,0
2016-02-22T03:03:24.504Z,0
2016-02-22T03:04:43.804Z,0
2016-02-22T03:05:40.416Z,0
2016-02-22T03:06:33.981Z,0
2016-02-22T03:07:53.499Z,0
2016-02-22T03:08:40.424Z,0
2016-02-22T03:09:56.614Z,0
2016-02-22T03:10:37.398Z,0
2016-02-22T03:11:38.073Z,0
2016-02-22T03:12:37.450Z,0
2016-02-22T03:13:37.594Z,0
2016-02-22T03:14:50.205Z,0
2016-02-22T03:15:50.240Z,0
2016-02-22T03:17:03.070Z,0
2016-02-22T03:18:03.213Z,0
2016-02-22T03:19:08.876Z,0
2016-02-22T03:20:08.909Z,0
2016-02-22T03:20:37.441Z,0
2016-02-22T03:21:37.615Z,0
2016-02-22T03:22:38.431Z,0
2016-02-22T03:23:37.886Z,0
2016-02-22T03:24:56.919Z,0
2016-02-22T03:25:38.329Z,0
2016-02-22T03:27:09.038Z,0
2016-02-22T03:27:37.772Z,0
2016-02-22T03:28:37.759Z,0
2016-02-22T03:29:50.527Z,0
2016-02-22T03:30:37.780Z,0
2016-02-22T03:32:53.613Z,0
2016-02-22T03:35:15.934Z,0
2016-02-22T03:36:09.687Z,0
2016-02-22T03:37:22.470Z,0
2016-02-22T03:38:16.004Z,0
2016-02-22T03:39:09.757Z,0
2016-02-22T03:40:28.979Z,0
2016-02-22T03:41:10.012Z,0
2016-02-22T03:43:41.612Z,0
2016-02-22T03:44:19.333Z,0
2016-02-22T03:46:22.011Z,0
2016-02-22T03:47:00.245Z,0
2016-02-22T03:47:34.592Z,0
2016-02-22T03:49:37.425Z,0
2016-02-22T03:50:09.161Z,0
2016-02-22T03:50:50.021Z,0
2016-02-22T03:52:09.402Z,0
2016-02-22T03:52:53.324Z,0
2016-02-22T03:53:53.452Z,0
2016-02-22T03:55:06.047Z,0
2016-02-22T03:56:06.128Z,0
2016-02-22T03:57:50.338Z,0
2016-02-22T03:58:28.449Z,0
2016-02-22T03:59:15.671Z,0
2016-02-22T04:00:28.471Z,0
2016-02-22T04:01:15.707Z,0
2016-02-22T04:02:15.538Z,0
2016-02-22T04:03:21.979Z,0
2016-02-22T04:04:28.496Z,0
2016-02-22T04:05:34.968Z,0
2016-02-22T04:08:15.867Z,0
2016-02-22T04:09:41.557Z,0
2016-02-22T04:10:25.434Z,0
2016-02-22T04:12:32.565Z,0
2016-02-22T04:13:39.084Z,0
2016-02-22T04:14:48.414Z,0
2016-02-22T04:15:22.964Z,0
2016-02-22T04:17:20.609Z,0
2016-02-22T04:17:33.172Z,0
2016-02-22T04:19:30.380Z,0
2016-02-22T04:19:43.021Z,0
2016-02-22T04:21:46.277Z,0
2016-02-22T04:21:58.839Z,0
2016-02-22T04:22:58.841Z,0
2016-02-22T04:24:11.613Z,0
2016-02-22T04:24:59.081Z,0
2016-02-22T04:27:22.464Z,0
2016-02-22T04:29:25.798Z,0
2016-02-22T04:30:19.379Z,0
2016-02-22T04:32:28.962Z,0
2016-02-22T04:33:16.215Z,0
2016-02-22T04:34:28.999Z,0
2016-02-22T04:35:17.689Z,0
2016-02-22T04:36:41.926Z,0
2016-02-22T04:37:25.788Z,0
2016-02-22T04:38:51.479Z,0
2016-02-22T04:39:35.356Z,0
2016-02-22T04:41:32.361Z,0
2016-02-22T04:42:04.408Z,0
2016-02-22T04:45:16.623Z,0
2016-02-22T04:45:50.810Z,0
2016-02-22T04:47:22.800Z,0
2016-02-22T04:47:51.706Z,0
2016-02-22T04:49:03.724Z,0
2016-02-22T04:49:51.353Z,0
2016-02-22T04:51:10.122Z,0
2016-02-22T04:51:52.372Z,0
2016-02-22T04:53:16.627Z,0
2016-02-22T04:54:00.533Z,0
2016-02-22T04:55:19.758Z,0
2016-02-22T04:56:06.633Z,0
2016-02-22T04:57:29.358Z,0
2016-02-22T04:58:16.376Z,0
2016-02-22T04:59:34.988Z,0
2016-02-22T05:00:17.662Z,0
2016-02-22T05:01:35.025Z,0
2016-02-22T05:02:44.574Z,0
2016-02-22T05:03:18.983Z,0
2016-02-22T05:05:15.912Z,0
2016-02-22T05:05:28.553Z,0
2016-02-22T05:07:31.106Z,0
2016-02-22T05:08:09.342Z,0
2016-02-22T05:08:43.748Z,0
2016-02-22T05:11:19.037Z,0
2016-02-22T05:13:19.731Z,0
2016-02-22T05:13:32.340Z,0
2016-02-22T05:15:30.111Z,0
2016-02-22T05:15:42.705Z,0
2016-02-22T05:17:13.992Z,0
2016-02-22T05:17:42.695Z,0
2016-02-22T05:18:42.775Z,0
2016-02-22T05:19:42.746Z,0
2016-02-22T05:20:42.749Z,0
2016-02-22T05:21:55.519Z,0
2016-02-22T05:22:42.786Z,0
2016-02-22T05:27:05.265Z,0
2016-02-22T05:28:14.850Z,0
2016-02-22T05:29:37.946Z,0
2016-02-22T05:30:53.151Z,0
2016-02-22T05:31:49.779Z,0
2016-02-22T05:33:53.237Z,0
2016-02-22T05:36:46.777Z,0
2016-02-22T05:37:21.061Z,0
2016-02-22T05:39:19.487Z,0
2016-02-22T05:39:33.456Z,0
2016-02-22T05:41:34.759Z,0
2016-02-22T05:41:47.212Z,0
2016-02-22T05:42:47.371Z,0
2016-02-22T05:45:23.083Z,0
2016-02-22T05:45:57.239Z,0
2016-02-22T05:46:57.381Z,0
2016-02-22T05:51:51.786Z,0
2016-02-22T05:52:26.258Z,0
2016-02-22T05:53:57.432Z,0
2016-02-22T05:54:35.700Z,0
2016-02-22T05:56:38.316Z,0
2016-02-22T05:57:16.568Z,0
2016-02-22T05:57:50.943Z,0
2016-02-22T06:00:00.496Z,0
2016-02-22T06:01:00.513Z,0
2016-02-22T06:03:03.143Z,4
2016-02-22T06:03:41.553Z,4
2016-02-22T06:04:15.727Z,4
2016-02-22T06:07:47.938Z,4
2016-02-22T06:08:54.378Z,4
2016-02-22T06:09:54.393Z,8
2016-02-22T06:12:09.544Z,12
2016-02-22T06:12:50.363Z,12
2016-02-22T06:14:16.033Z,12
2016-02-22T06:14:54.267Z,12
2016-02-22T06:17:09.717Z,20
2016-02-22T06:18:09.450Z,40
2016-02-22T06:19:09.666Z,24
2016-02-22T06:20:09.508Z,24
2016-02-22T06:21:22.418Z,28
2016-02-22T06:22:15.996Z,32
2016-02-22T06:23:28.920Z,36
2016-02-22T06:24:22.531Z,44
2016-02-22T06:26:32.112Z,48
2016-02-22T06:28:41.741Z,64
2016-02-22T06:28:54.522Z,68
2016-02-22T06:29:54.524Z,68
2016-02-22T06:31:07.261Z,72
2016-02-22T06:32:07.076Z,76
2016-02-22T06:33:13.658Z,76
2016-02-22T06:34:13.677Z,76
2016-02-22T06:35:20.148Z,84
2016-02-22T06:35:54.492Z,88
2016-02-22T06:38:03.998Z,100
2016-02-22T06:39:04.031Z,104
2016-02-22T06:40:16.787Z,116
2016-02-22T06:41:29.837Z,120
2016-02-22T06:42:39.214Z,124
2016-02-22T06:43:39.403Z,132
2016-02-22T06:46:25.897Z,168
2016-02-22T06:47:00.256Z,172
2016-02-22T06:48:00.306Z,160
2016-02-22T06:49:00.293Z,148
2016-02-22T06:50:13.063Z,148
2016-02-22T06:51:06.610Z,152
2016-02-22T06:53:29.134Z,224
2016-02-22T06:56:09.186Z,300
2016-02-22T06:56:44.189Z,300
2016-02-22T06:58:09.832Z,268
2016-02-22T06:58:44.819Z,280
2016-02-22T06:59:37.963Z,272
2016-02-22T07:00:50.700Z,352
2016-02-22T07:01:50.765Z,336
2016-02-22T07:02:38.002Z,300
2016-02-22T07:04:03.739Z,444
2016-02-22T07:04:50.788Z,468
2016-02-22T07:06:03.729Z,548
2016-02-22T07:06:38.091Z,560
2016-02-22T07:07:38.079Z,596
2016-02-22T07:08:38.096Z,596
2016-02-22T07:09:44.396Z,608
2016-02-22T07:10:44.429Z,624
2016-02-22T07:11:38.135Z,628
2016-02-22T07:12:50.904Z,628
2016-02-22T07:13:38.187Z,608
2016-02-22T07:16:07.006Z,652
2016-02-22T07:17:00.556Z,660
2016-02-22T07:18:12.670Z,648
2016-02-22T07:18:44.404Z,652
2016-02-22T07:20:12.753Z,752
2016-02-22T07:20:51.066Z,776
2016-02-22T07:22:55.071Z,740
2016-02-22T07:23:33.309Z,784
2016-02-22T07:24:07.668Z,832
2016-02-22T07:26:10.297Z,976
2016-02-22T07:26:42.098Z,1020
2016-02-22T07:27:22.882Z,1068
2016-02-22T07:29:21.293Z,1144
2016-02-22T07:29:33.855Z,1160
2016-02-22T07:30:33.891Z,1196
2016-02-22T07:31:46.658Z,1248
2016-02-22T07:32:34.520Z,1248
2016-02-22T07:33:53.149Z,1244
2016-02-22T07:34:33.979Z,1304
2016-02-22T07:37:09.202Z,1336
2016-02-22T07:37:43.518Z,1368
2016-02-22T07:40:37.370Z,1324
2016-02-22T07:40:58.948Z,1340
2016-02-22T07:42:55.798Z,1324
2016-02-22T07:43:08.360Z,1376
2016-02-22T07:45:23.665Z,1540
2016-02-22T07:47:57.998Z,1708
2016-02-22T07:48:45.923Z,1776
2016-02-22T07:50:23.694Z,1748
2016-02-22T07:50:55.475Z,1716
2016-02-22T07:52:07.572Z,1804
2016-02-22T07:53:01.918Z,1784
2016-02-22T07:55:10.705Z,1880
2016-02-22T07:55:51.614Z,2000
2016-02-22T07:56:51.522Z,1932
2016-02-22T07:57:57.838Z,1780
2016-02-22T07:58:57.841Z,1688
2016-02-22T08:00:35.564Z,1728
2016-02-22T08:01:07.346Z,1844
2016-02-22T08:03:09.945Z,1908
2016-02-22T08:03:41.838Z,1976
2016-02-22T08:04:22.684Z,2036
2016-02-22T08:06:19.987Z,1948
2016-02-22T08:06:58.252Z,1968
2016-02-22T08:07:32.582Z,1964
2016-02-22T08:09:03.930Z,1844
2016-02-22T08:09:38.996Z,1864
2016-02-22T08:11:35.250Z,1636
2016-02-22T08:12:07.109Z,1592
2016-02-22T08:12:47.832Z,1368
2016-02-22T08:13:47.849Z,1332
2016-02-22T08:14:47.929Z,1492
2016-02-22T08:16:00.636Z,1756
2016-02-22T08:17:00.639Z,1996
2016-02-22T08:17:47.938Z,2096
2016-02-22T08:19:07.159Z,2052
2016-02-22T08:19:54.240Z,2216
2016-02-22T08:21:13.653Z,2396
2016-02-22T08:24:22.442Z,2340
2016-02-22T08:25:22.444Z,2408
2016-02-22T08:26:22.666Z,2624
2016-02-22T08:27:22.480Z,2792
2016-02-22T08:28:22.499Z,2972
2016-02-22T08:29:22.517Z,3016
2016-02-22T08:30:35.286Z,2980
2016-02-22T08:31:28.960Z,2900
2016-02-22T08:33:45.075Z,2584
2016-02-22T08:34:26.046Z,2452
2016-02-22T08:36:22.849Z,1752
2016-02-22T08:37:01.161Z,1916
2016-02-22T08:37:35.445Z,2056
2016-02-22T08:39:38.076Z,2508
2016-02-22T08:39:50.779Z,2500
2016-02-22T08:40:50.766Z,2728
2016-02-22T08:41:50.753Z,3164
2016-02-22T08:42:57.084Z,3320
2016-02-22T08:43:57.055Z,3364
2016-02-22T08:45:09.996Z,3576
2016-02-22T08:46:10.123Z,3392
2016-02-22T08:46:50.845Z,3188
2016-02-22T08:48:22.178Z,3032
2016-02-22T08:49:00.428Z,3052
2016-02-22T08:51:03.167Z,2944
2016-02-22T08:51:41.437Z,2920
2016-02-22T08:52:15.829Z,2600
2016-02-22T08:53:15.831Z,2500
2016-02-22T08:54:15.850Z,2224
2016-02-22T08:55:17.321Z,1920
2016-02-22T08:56:17.278Z,2168
2016-02-22T08:57:35.077Z,2420
2016-02-22T08:58:28.627Z,2660
2016-02-22T09:00:37.742Z,3696
2016-02-22T09:00:50.336Z,3844
2016-02-22T09:02:21.730Z,4400
2016-02-22T09:03:02.933Z,4580
2016-02-22T09:05:44.067Z,3708
2016-02-22T09:06:05.692Z,3604
2016-02-22T09:07:50.572Z,3872
2016-02-22T09:08:05.947Z,3944
2016-02-22T09:09:05.732Z,3492
2016-02-22T09:10:05.813Z,2728
2016-02-22T09:11:05.799Z,2724
2016-02-22T09:12:18.540Z,2468
2016-02-22T09:13:12.118Z,2896
2016-02-22T09:14:25.029Z,2968
2016-02-22T09:15:25.062Z,2316
2016-02-22T09:16:37.190Z,2372
2016-02-22T09:17:37.209Z,3124
2016-02-22T09:19:37.887Z,3412
2016-02-22T09:20:50.873Z,2996
2016-02-22T09:22:25.378Z,3152
2016-02-22T09:23:34.928Z,3372
2016-02-22T09:24:41.197Z,3344
2016-02-22T09:26:07.777Z,3432
2016-02-22T09:28:08.283Z,2760
2016-02-22T09:29:08.301Z,3040
2016-02-22T09:30:21.228Z,3244
2016-02-22T09:31:09.150Z,2860
2016-02-22T09:33:17.986Z,3336
2016-02-22T09:34:37.224Z,4188
2016-02-22T09:35:21.116Z,4472
2016-02-22T09:37:24.372Z,4620
2016-02-22T09:37:36.997Z,4628
2016-02-22T09:38:37.344Z,4776
2016-02-22T09:39:49.862Z,4260
2016-02-22T09:40:37.021Z,4524
2016-02-22T09:43:05.713Z,4680
2016-02-22T09:43:59.263Z,5216
2016-02-22T09:45:11.984Z,5236
2016-02-22T09:45:52.816Z,4868
2016-02-22T09:47:11.412Z,4028
2016-02-22T09:47:53.070Z,3624
2016-02-22T09:48:40.151Z,3740
2016-02-22T09:50:37.142Z,3444
2016-02-22T09:50:52.798Z,3472
2016-02-22T09:51:49.769Z,4180
2016-02-22T09:53:02.523Z,4936
2016-02-22T09:53:49.992Z,5136
2016-02-22T09:55:09.121Z,4384
2016-02-22T09:55:56.201Z,4456
2016-02-22T09:57:52.504Z,4784
2016-02-22T09:58:05.426Z,4528
2016-02-22T09:59:05.101Z,3604
2016-02-22T10:00:17.840Z,4328
2016-02-22T10:01:06.559Z,5124
2016-02-22T10:03:34.317Z,5920
2016-02-22T10:05:49.166Z,6432
2016-02-22T10:06:49.169Z,6016
2016-02-22T10:07:55.468Z,5776
2016-02-22T10:08:49.221Z,5496
2016-02-22T10:10:08.535Z,5464
2016-02-22T10:10:49.241Z,5664
2016-02-22T10:12:20.560Z,5520
2016-02-22T10:12:58.826Z,5528
2016-02-22T10:14:24.519Z,5352
2016-02-22T10:15:08.410Z,5016
2016-02-22T10:16:27.617Z,4716
2016-02-22T10:17:09.039Z,4720
2016-02-22T10:19:18.751Z,5140
2016-02-22T10:20:18.737Z,5816
2016-02-22T10:21:25.037Z,6444
2016-02-22T10:22:25.243Z,6736
2016-02-22T10:23:31.324Z,6544
2016-02-22T10:24:31.545Z,6424
2016-02-22T10:25:32.142Z,6332
2016-02-22T10:26:44.582Z,6280
2016-02-22T10:27:18.866Z,6316
2016-02-22T10:29:21.511Z,6616
2016-02-22T10:29:59.777Z,6848
2016-02-22T10:30:34.108Z,6964
2016-02-22T10:32:49.317Z,7112
2016-02-22T10:33:49.319Z,7092
2016-02-22T10:35:52.559Z,7240
2016-02-22T10:36:30.733Z,7104
2016-02-22T10:37:04.999Z,7068
2016-02-22T10:39:07.661Z,7472
2016-02-22T10:39:20.258Z,7512
2016-02-22T10:40:39.510Z,7624
2016-02-22T10:41:36.154Z,7508
2016-02-22T10:42:49.187Z,7284
2016-02-22T10:45:35.821Z,6920
2016-02-22T10:46:04.430Z,6848
2016-02-22T10:47:04.510Z,6688
2016-02-22T10:48:04.451Z,6348
2016-02-22T10:49:17.206Z,6116
2016-02-22T10:50:04.487Z,6136
2016-02-22T10:51:23.712Z,5756
2016-02-22T10:52:17.246Z,5772
2016-02-22T10:53:35.842Z,6164
2016-02-22T10:54:23.735Z,6456
2016-02-22T10:55:35.879Z,6504
2016-02-22T10:56:56.319Z,6420
2016-02-22T10:57:40.212Z,5960
2016-02-22T11:00:21.080Z,6292
2016-02-22T11:01:04.955Z,6208
2016-02-22T11:01:33.661Z,5992
2016-02-22T11:03:04.991Z,5592
2016-02-22T11:04:48.887Z,5604
2016-02-22T11:05:48.922Z,5376
2016-02-22T11:07:01.689Z,5640
2016-02-22T11:08:01.802Z,6620
2016-02-22T11:09:14.632Z,6560
2016-02-22T11:09:48.994Z,6220
2016-02-22T11:11:20.296Z,5776
2016-02-22T11:11:49.249Z,5660
2016-02-22T11:14:29.899Z,5412
2016-02-22T11:15:04.289Z,5912
2016-02-22T11:16:35.529Z,6196
2016-02-22T11:17:13.888Z,6160
2016-02-22T11:19:16.584Z,6160
2016-02-22T11:19:29.302Z,6192
2016-02-22T11:20:29.274Z,6228
2016-02-22T11:21:41.979Z,5952
2016-02-22T11:22:35.498Z,5368
2016-02-22T11:23:48.438Z,4636
2016-02-22T11:24:45.082Z,4852
2016-02-22T11:26:48.540Z,5236
2016-02-22T11:27:07.368Z,5360
2016-02-22T11:28:32.498Z,5516
2016-02-22T11:29:07.420Z,5484
2016-02-22T11:30:01.220Z,5380
2016-02-22T11:31:01.175Z,5348
2016-02-22T11:32:13.945Z,5360
2016-02-22T11:33:13.947Z,5352
2016-02-22T11:35:17.424Z,4760
2016-02-22T11:36:01.299Z,4568
2016-02-22T11:37:04.364Z,4880
2016-02-22T11:38:07.585Z,5048
2016-02-22T11:39:07.635Z,5196
2016-02-22T11:41:29.924Z,5612
2016-02-22T11:42:23.646Z,5624
2016-02-22T11:43:35.663Z,5452
2016-02-22T11:45:39.701Z,4712
2016-02-22T11:46:17.938Z,4628
2016-02-22T11:46:52.282Z,4436
2016-02-22T11:47:52.284Z,4432
2016-02-22T11:48:52.334Z,4376
2016-02-22T11:50:05.071Z,4192
2016-02-22T11:50:58.621Z,4104
2016-02-22T11:52:18.047Z,3964
2016-02-22T11:52:52.390Z,3896
2016-02-22T11:54:55.631Z,3652
2016-02-22T11:55:08.209Z,3652
2016-02-22T11:56:08.212Z,3632
2016-02-22T11:57:08.245Z,3596
2016-02-22T11:58:20.970Z,3544
2016-02-22T11:59:08.267Z,3632
2016-02-22T12:00:27.491Z,3792
2016-02-22T12:01:11.412Z,3972
2016-02-22T12:03:46.670Z,4360
2016-02-22T12:04:21.033Z,4432
2016-02-22T12:06:18.070Z,4388
2016-02-22T12:06:30.789Z,4248
2016-02-22T12:08:45.841Z,4244
2016-02-22T12:09:45.905Z,4172
2016-02-22T12:10:58.612Z,4280
2016-02-22T12:11:58.614Z,4448
2016-02-22T12:14:02.151Z,4400
2016-02-22T12:16:29.910Z,3856
2016-02-22T12:17:49.162Z,3796
2016-02-22T12:19:30.043Z,3800
2016-02-22T12:19:42.730Z,3816
2016-02-22T12:21:39.594Z,4348
2016-02-22T12:21:52.157Z,4424
2016-02-22T12:23:11.503Z,4876
2016-02-22T12:23:52.210Z,4972
2016-02-22T12:25:49.809Z,5036
2016-02-22T12:26:21.592Z,5040
2016-02-22T12:27:02.514Z,4960
2016-02-22T12:28:59.598Z,5016
2016-02-22T12:29:37.710Z,5140
2016-02-22T12:30:21.697Z,5552
2016-02-22T12:31:40.605Z,5964
2016-02-22T12:32:46.734Z,6260
2016-02-22T12:33:24.486Z,6484
2016-02-22T12:35:27.147Z,6048
2016-02-22T12:36:05.381Z,5964
2016-02-22T12:36:39.760Z,5980
2016-02-22T12:38:42.375Z,6104
2016-02-22T12:39:20.658Z,6160
2016-02-22T12:39:54.971Z,6160
2016-02-22T12:41:20.680Z,6120
2016-02-22T12:42:04.586Z,6184
2016-02-22T12:43:30.263Z,6364
2016-02-22T12:44:14.138Z,6484
2016-02-22T12:45:14.171Z,6600
2016-02-22T12:46:20.427Z,6388
2016-02-22T12:47:14.786Z,6164
2016-02-22T12:48:14.227Z,6152
2016-02-22T12:49:27.169Z,6408
2016-02-22T12:50:14.279Z,6412
2016-02-22T12:51:33.566Z,6356
2016-02-22T12:52:14.707Z,6460
2016-02-22T12:53:40.092Z,6704
2016-02-22T12:54:14.451Z,6704
2016-02-22T12:56:27.553Z,5960
2016-02-22T12:57:14.365Z,5700
2016-02-22T12:58:33.746Z,5192
2016-02-22T12:59:14.684Z,4976
2016-02-22T13:01:29.520Z,4492
2016-02-22T13:03:26.478Z,4720
2016-02-22T13:04:36.043Z,4992
2016-02-22T13:04:48.512Z,5020
2016-02-22T13:06:07.952Z,5000
2016-02-22T13:06:54.877Z,4924
2016-02-22T13:09:14.132Z,4760
2016-02-22T13:10:23.697Z,4752
2016-02-22T13:12:26.330Z,4768
2016-02-22T13:13:29.396Z,4828
2016-02-22T13:14:10.239Z,4816
2016-02-22T13:15:30.041Z,4856
2016-02-22T13:16:16.619Z,4896
2016-02-22T13:18:27.034Z,4588
2016-02-22T13:19:27.083Z,4624
2016-02-22T13:20:52.757Z,4560
2016-02-22T13:21:39.682Z,4732
2016-02-22T13:23:02.326Z,5012
2016-02-22T13:23:45.985Z,5124
2016-02-22T13:25:35.193Z,5128
2016-02-22T13:25:47.756Z,5172
2016-02-22T13:27:07.071Z,5420
2016-02-22T13:27:47.808Z,5300
2016-02-22T13:29:44.798Z,5088
2016-02-22T13:30:00.439Z,4940
2016-02-22T13:31:28.726Z,4796
2016-02-22T13:32:07.007Z,4740
2016-02-22T13:34:22.167Z,4764
2016-02-22T13:35:47.845Z,4760
2016-02-22T13:36:57.411Z,4808
2016-02-22T13:37:50.975Z,4852
2016-02-22T13:39:57.636Z,4320
2016-02-22T13:40:32.749Z,4124
2016-02-22T13:41:57.971Z,3956
2016-02-22T13:42:32.020Z,3916
2016-02-22T13:43:57.757Z,3844
2016-02-22T13:44:41.791Z,3820
2016-02-22T13:46:51.344Z,3772
2016-02-22T13:48:10.502Z,3676
2016-02-22T13:49:04.147Z,3520
2016-02-22T13:50:22.633Z,3164
2016-02-22T13:51:13.729Z,2992
2016-02-22T13:52:25.779Z,2872
2016-02-22T13:53:57.119Z,2756
2016-02-22T13:54:35.551Z,2768
2016-02-22T13:55:10.238Z,2860
2016-02-22T13:57:23.282Z,3160
2016-02-22T13:59:20.772Z,3248
2016-02-22T13:59:33.384Z,3264
2016-02-22T14:00:46.152Z,3380
2016-02-22T14:01:33.780Z,3480
2016-02-22T14:02:33.424Z,3504
2016-02-22T14:03:33.427Z,3456
2016-02-22T14:04:33.477Z,3332
2016-02-22T14:05:46.182Z,3272
2016-02-22T14:06:39.763Z,3308
2016-02-22T14:07:52.718Z,3348
2016-02-22T14:08:39.831Z,3352
2016-02-22T14:10:24.895Z,3204
2016-02-22T14:10:50.196Z,3084
2016-02-22T14:12:28.699Z,2996
2016-02-22T14:12:50.842Z,3076
2016-02-22T14:13:50.267Z,3080
2016-02-22T14:14:50.300Z,3044
2016-02-22T14:15:50.318Z,3028
2016-02-22T14:16:50.306Z,2916
2016-02-22T14:17:50.355Z,2712
2016-02-22T14:18:50.342Z,2484
2016-02-22T14:19:50.360Z,2504
2016-02-22T14:20:50.379Z,2488
2016-02-22T14:21:50.381Z,2500
2016-02-22T14:22:50.416Z,2408
2016-02-22T14:23:50.433Z,2228
2016-02-22T14:24:56.734Z,2076
2016-02-22T14:25:50.470Z,2016
2016-02-22T14:26:50.489Z,1980
2016-02-22T14:27:50.507Z,1996
2016-02-22T14:28:50.572Z,1848
2016-02-22T14:29:50.544Z,2024
2016-02-22T14:30:50.577Z,2176
2016-02-22T14:31:50.549Z,2252
2016-02-22T14:32:50.630Z,2040
2016-02-22T14:33:50.616Z,1912
2016-02-22T14:34:50.635Z,1880
2016-02-22T14:35:56.909Z,1940
2016-02-22T14:36:50.630Z,1940
2016-02-22T14:38:03.477Z,2080
2016-02-22T14:38:50.667Z,2216
2016-02-22T14:39:50.716Z,2444
2016-02-22T14:40:50.703Z,2480
2016-02-22T14:41:50.878Z,2148
2016-02-22T14:43:03.506Z,1712
2016-02-22T14:43:57.118Z,1484
2016-02-22T14:45:09.979Z,1368
2016-02-22T14:45:57.061Z,1240
2016-02-22T14:47:22.109Z,1308
2016-02-22T14:48:31.691Z,1680
2016-02-22T14:49:25.226Z,2516
2016-02-22T14:51:18.762Z,2944
2016-02-22T14:53:28.345Z,2272
2016-02-22T14:54:28.333Z,1888
2016-02-22T14:55:28.398Z,1640
2016-02-22T14:56:28.464Z,1464
2016-02-22T14:57:28.403Z,1392
2016-02-22T14:58:41.250Z,1236
2016-02-22T14:59:28.471Z,1092
2016-02-22T15:00:47.645Z,1100
2016-02-22T15:01:28.477Z,1052
2016-02-22T15:02:54.182Z,1028
2016-02-22T15:03:34.997Z,1076
2016-02-22T15:05:32.566Z,920
2016-02-22T15:05:45.128Z,944
2016-02-22T15:06:45.178Z,1216
2016-02-22T15:07:58.102Z,1036
2016-02-22T15:08:57.963Z,968
2016-02-22T15:10:11.829Z,1004
2016-02-22T15:10:45.235Z,952
2016-02-22T15:12:16.600Z,748
2016-02-22T15:12:54.897Z,824
2016-02-22T15:14:57.668Z,1884
2016-02-22T15:15:35.951Z,2012
2016-02-22T15:16:10.345Z,2820
2016-02-22T15:18:14.401Z,2756
2016-02-22T15:18:46.198Z,2536
2016-02-22T15:19:27.030Z,2232
2016-02-22T15:21:29.814Z,1560
2016-02-22T15:21:42.455Z,1504
2016-02-22T15:22:42.561Z,1148
2016-02-22T15:23:49.011Z,952
2016-02-22T15:24:42.493Z,1028
2016-02-22T15:25:42.476Z,1116
2016-02-22T15:26:42.679Z,1104
2016-02-22T15:27:42.492Z,1284
2016-02-22T15:28:55.243Z,1180
2016-02-22T15:29:48.978Z,1424
2016-02-22T15:30:42.635Z,1796
2016-02-22T15:31:42.559Z,2016
2016-02-22T15:32:42.656Z,1736
2016-02-22T15:33:42.845Z,1480
2016-02-22T15:34:42.723Z,1508
2016-02-22T15:35:42.741Z,1104
2016-02-22T15:36:43.447Z,1012
2016-02-22T15:37:43.011Z,1128
2016-02-22T15:39:01.935Z,1272
2016-02-22T15:39:42.704Z,1444
2016-02-22T15:41:45.318Z,1544
2016-02-22T15:42:23.617Z,1556
2016-02-22T15:42:57.977Z,1552
2016-02-22T15:44:29.248Z,1556
2016-02-22T15:45:07.360Z,1548
2016-02-22T15:46:32.408Z,1492
2016-02-22T15:47:13.850Z,1476
2016-02-22T15:48:01.725Z,1480
2016-02-22T15:49:01.134Z,1460
2016-02-22T15:50:13.982Z,1456
2016-02-22T15:51:01.185Z,1444
2016-02-22T15:52:58.269Z,1400
2016-02-22T15:55:38.793Z,1376
2016-02-22T15:56:26.092Z,1368
2016-02-22T15:57:26.079Z,1316